Aviation Digital Data Service (ADDS)

Output produced by METARs form (1633 UTC 21 September 2018)
found at http://www.aviationweather.gov/metar/data/
 
KMOB 211620Z 00000KT 10SM BKN030 BKN200 32/23 A3009 RMK AO2 T03170233
KMOB 211556Z VRB03KT 10SM BKN020 BKN200 32/24 A3009 RMK AO2 SLP187 T03170239
KMOB 211120Z 2112/2212 05005KT P6SM FEW020 FEW250 
     FM211500 08005KT P6SM VCSH SCT025 
     FM211700 13007KT P6SM VCTS SCT030CB SCT150 
     TEMPO 2119/2123 VRB15G25KT 2SM TSRA BKN015CB 
     FM220000 10004KT P6SM FEW050 BKN200